sensor_id;sensor_type;location;lat;lon;timestamp;pressure;altitude;pressure_sealevel;temperature;humidity
52949;BME280;38812;50.942;3.644;2023-07-31T00:00:11;101214.22;;;16.57;100.00
52949;BME280;38812;50.942;3.644;2023-07-31T00:02:37;101192.13;;;16.57;100.00
52949;BME280;38812;50.942;3.644;2023-07-31T00:05:03;101185.28;;;16.51;100.00
52949;BME280;38812;50.942;3.644;2023-07-31T00:07:28;101161.34;;;16.31;100.00
52949;BME280;38812;50.942;3.644;2023-07-31T00:09:54;101180.41;;;16.40;100.00
52949;BME280;38812;50.942;3.644;2023-07-31T00:12:20;101188.91;;;16.49;100.00
52949;BME280;38812;50.942;3.644;2023-07-31T00:14:45;101143.78;;;16.28;100.00
52949;BME280;38812;50.942;3.644;2023-07-31T00:17:11;101178.63;;;16.63;100.00
52949;BME280;38812;50.942;3.644;2023-07-31T00:19:36;101190.28;;;16.59;100.00
52949;BME280;38812;50.942;3.644;2023-07-31T00:22:02;101180.53;;;16.59;100.00
52949;BME280;38812;50.942;3.644;2023-07-31T00:24:27;101160.53;;;16.51;100.00
52949;BME280;38812;50.942;3.644;2023-07-31T00:26:53;101137.06;;;16.41;100.00
52949;BME280;38812;50.942;3.644;2023-07-31T00:29:18;101154.38;;;16.50;100.00
52949;BME280;38812;50.942;3.644;2023-07-31T00:31:44;101144.03;;;16.44;100.00
52949;BME280;38812;50.942;3.644;2023-07-31T00:34:09;101152.66;;;16.49;100.00
52949;BME280;38812;50.942;3.644;2023-07-31T00:36:34;101155.88;;;16.57;100.00
52949;BME280;38812;50.942;3.644;2023-07-31T00:39:00;101146.41;;;16.50;100.00
52949;BME280;38812;50.942;3.644;2023-07-31T00:41:25;101169.78;;;16.64;100.00
52949;BME280;38812;50.942;3.644;2023-07-31T00:43:51;101163.41;;;16.68;100.00
52949;BME280;38812;50.942;3.644;2023-07-31T00:46:16;101169.13;;;16.57;100.00
52949;BME280;38812;50.942;3.644;2023-07-31T00:48:42;101139.59;;;16.44;100.00
52949;BME280;38812;50.942;3.644;2023-07-31T00:51:08;101145.50;;;16.51;100.00
52949;BME280;38812;50.942;3.644;2023-07-31T00:53:34;101153.28;;;16.56;100.00
52949;BME280;38812;50.942;3.644;2023-07-31T00:55:59;101133.34;;;16.45;100.00
52949;BME280;38812;50.942;3.644;2023-07-31T00:58:25;101142.03;;;16.49;100.00
52949;BME280;38812;50.942;3.644;2023-07-31T01:00:50;101161.97;;;16.59;100.00
52949;BME280;38812;50.942;3.644;2023-07-31T01:03:16;101145.38;;;16.54;100.00
52949;BME280;38812;50.942;3.644;2023-07-31T01:08:40;101148.59;;;16.62;100.00
52949;BME280;38812;50.942;3.644;2023-07-31T01:11:15;101130.94;;;16.61;100.00
52949;BME280;38812;50.942;3.644;2023-07-31T01:13:42;101145.56;;;16.71;100.00
52949;BME280;38812;50.942;3.644;2023-07-31T01:16:08;101125.56;;;16.64;100.00
52949;BME280;38812;50.942;3.644;2023-07-31T01:18:33;101139.22;;;16.75;100.00
52949;BME280;38812;50.942;3.644;2023-07-31T01:21:11;101133.28;;;16.69;100.00
52949;BME280;38812;50.942;3.644;2023-07-31T01:23:48;101144.41;;;16.78;100.00
52949;BME280;38812;50.942;3.644;2023-07-31T01:26:19;101137.47;;;16.74;100.00
52949;BME280;38812;50.942;3.644;2023-07-31T01:29:03;101138.28;;;16.76;100.00
52949;BME280;38812;50.942;3.644;2023-07-31T01:31:32;101129.47;;;16.76;100.00
52949;BME280;38812;50.942;3.644;2023-07-31T01:34:00;101080.66;;;16.58;100.00
52949;BME280;38812;50.942;3.644;2023-07-31T01:36:27;101117.38;;;16.89;100.00
52949;BME280;38812;50.942;3.644;2023-07-31T01:38:58;101089.44;;;16.60;100.00
52949;BME280;38812;50.942;3.644;2023-07-31T01:41:23;101118.00;;;16.75;100.00
52949;BME280;38812;50.942;3.644;2023-07-31T01:43:48;101102.19;;;16.72;100.00
52949;BME280;38812;50.942;3.644;2023-07-31T01:46:14;101119.59;;;16.79;100.00
52949;BME280;38812;50.942;3.644;2023-07-31T01:48:39;101099.66;;;16.69;100.00
52949;BME280;38812;50.942;3.644;2023-07-31T01:51:05;101086.78;;;16.60;100.00
52949;BME280;38812;50.942;3.644;2023-07-31T01:53:31;101063.09;;;16.56;100.00
52949;BME280;38812;50.942;3.644;2023-07-31T01:55:56;101095.97;;;16.73;100.00
52949;BME280;38812;50.942;3.644;2023-07-31T01:58:22;101092.44;;;16.73;100.00
52949;BME280;38812;50.942;3.644;2023-07-31T02:00:47;101086.16;;;16.75;100.00
52949;BME280;38812;50.942;3.644;2023-07-31T02:03:12;101068.91;;;16.65;100.00
52949;BME280;38812;50.942;3.644;2023-07-31T02:05:45;101086.16;;;16.75;100.00
52949;BME280;38812;50.942;3.644;2023-07-31T02:08:10;101082.44;;;16.79;100.00
52949;BME280;38812;50.942;3.644;2023-07-31T02:10:36;101042.75;;;16.56;100.00
52949;BME280;38812;50.942;3.644;2023-07-31T02:13:01;101051.38;;;16.61;100.00
52949;BME280;38812;50.942;3.644;2023-07-31T02:15:31;101054.22;;;16.57;100.00
52949;BME280;38812;50.942;3.644;2023-07-31T02:17:57;101071.50;;;16.67;100.00
52949;BME280;38812;50.942;3.644;2023-07-31T02:20:22;101045.66;;;16.50;100.00
52949;BME280;38812;50.942;3.644;2023-07-31T02:22:48;101053.59;;;16.50;100.00
52949;BME280;38812;50.942;3.644;2023-07-31T02:25:13;101060.91;;;16.67;100.00
52949;BME280;38812;50.942;3.644;2023-07-31T02:27:39;101066.19;;;16.67;100.00
52949;BME280;38812;50.942;3.644;2023-07-31T02:30:05;101044.72;;;16.51;100.00
52949;BME280;38812;50.942;3.644;2023-07-31T02:32:30;101052.47;;;16.56;100.00
52949;BME280;38812;50.942;3.644;2023-07-31T02:34:56;101034.09;;;16.51;100.00
52949;BME280;38812;50.942;3.644;2023-07-31T02:37:21;101057.50;;;16.63;100.00
52949;BME280;38812;50.942;3.644;2023-07-31T02:39:47;101056.69;;;16.61;100.00
52949;BME280;38812;50.942;3.644;2023-07-31T02:42:13;101053.97;;;16.63;100.00
52949;BME280;38812;50.942;3.644;2023-07-31T02:44:39;101049.56;;;16.63;100.00
52949;BME280;38812;50.942;3.644;2023-07-31T02:47:04;101034.22;;;16.48;100.00
52949;BME280;38812;50.942;3.644;2023-07-31T02:49:29;101053.28;;;16.58;100.00
52949;BME280;38812;50.942;3.644;2023-07-31T02:51:55;101039.28;;;16.54;100.00
52949;BME280;38812;50.942;3.644;2023-07-31T02:54:20;101030.78;;;16.46;100.00
52949;BME280;38812;50.942;3.644;2023-07-31T02:56:47;101031.94;;;16.40;100.00
52949;BME280;38812;50.942;3.644;2023-07-31T02:59:13;101050.88;;;16.52;100.00
52949;BME280;38812;50.942;3.644;2023-07-31T03:01:38;101043.13;;;16.47;100.00
52949;BME280;38812;50.942;3.644;2023-07-31T03:04:04;101046.69;;;16.46;100.00
52949;BME280;38812;50.942;3.644;2023-07-31T03:06:29;101027.75;;;16.35;100.00
52949;BME280;38812;50.942;3.644;2023-07-31T03:08:54;101052.16;;;16.43;100.00
52949;BME280;38812;50.942;3.644;2023-07-31T03:11:20;101046.84;;;16.43;100.00
52949;BME280;38812;50.942;3.644;2023-07-31T03:13:45;101035.81;;;16.32;100.00
52949;BME280;38812;50.942;3.644;2023-07-31T03:16:11;101046.84;;;16.43;100.00
52949;BME280;38812;50.942;3.644;2023-07-31T03:18:36;101040.38;;;16.28;100.00
52949;BME280;38812;50.942;3.644;2023-07-31T03:21:02;101028.50;;;16.17;100.00
52949;BME280;38812;50.942;3.644;2023-07-31T03:23:27;101058.06;;;16.28;100.00
52949;BME280;38812;50.942;3.644;2023-07-31T03:26:00;101050.47;;;16.20;100.00
52949;BME280;38812;50.942;3.644;2023-07-31T03:28:26;101063.03;;;16.15;100.00
52949;BME280;38812;50.942;3.644;2023-07-31T03:30:52;101072.53;;;16.21;100.00
52949;BME280;38812;50.942;3.644;2023-07-31T03:33:18;101071.91;;;16.14;100.00
52949;BME280;38812;50.942;3.644;2023-07-31T03:35:44;101062.97;;;16.17;100.00
52949;BME280;38812;50.942;3.644;2023-07-31T03:38:09;101050.00;;;16.09;100.00
52949;BME280;38812;50.942;3.644;2023-07-31T03:40:35;101052.47;;;16.14;100.00
52949;BME280;38812;50.942;3.644;2023-07-31T03:43:00;101025.75;;;15.98;100.00
52949;BME280;38812;50.942;3.644;2023-07-31T03:45:25;101056.97;;;16.11;100.00
52949;BME280;38812;50.942;3.644;2023-07-31T03:47:51;101061.47;;;16.09;100.00
52949;BME280;38812;50.942;3.644;2023-07-31T03:50:16;101047.47;;;16.06;100.00
52949;BME280;38812;50.942;3.644;2023-07-31T03:52:42;101054.56;;;16.05;100.00
52949;BME280;38812;50.942;3.644;2023-07-31T03:55:07;101038.59;;;16.07;100.00
52949;BME280;38812;50.942;3.644;2023-07-31T03:57:33;101034.44;;;16.01;100.00
52949;BME280;38812;50.942;3.644;2023-07-31T03:59:58;101029.16;;;16.01;100.00
52949;BME280;38812;50.942;3.644;2023-07-31T04:02:24;101018.09;;;15.90;100.00
52949;BME280;38812;50.942;3.644;2023-07-31T04:04:49;101047.97;;;16.16;100.00
52949;BME280;38812;50.942;3.644;2023-07-31T04:07:15;101004.69;;;15.95;100.00
52949;BME280;38812;50.942;3.644;2023-07-31T04:09:40;101008.31;;;15.92;100.00
52949;BME280;38812;50.942;3.644;2023-07-31T04:12:07;101040.84;;;16.18;100.00
52949;BME280;38812;50.942;3.644;2023-07-31T04:14:32;101014.88;;;16.04;100.00
52949;BME280;38812;50.942;3.644;2023-07-31T04:16:58;101020.63;;;16.15;100.00
52949;BME280;38812;50.942;3.644;2023-07-31T04:19:24;100989.31;;;16.03;100.00
52949;BME280;38812;50.942;3.644;2023-07-31T04:21:49;101000.59;;;16.08;100.00
52949;BME280;38812;50.942;3.644;2023-07-31T04:24:14;101028.50;;;16.17;100.00
52949;BME280;38812;50.942;3.644;2023-07-31T04:26:40;101003.22;;;16.08;100.00
52949;BME280;38812;50.942;3.644;2023-07-31T04:29:05;101022.97;;;16.23;100.00
52949;BME280;38812;50.942;3.644;2023-07-31T04:31:31;101023.09;;;16.20;100.00
52949;BME280;38812;50.942;3.644;2023-07-31T04:33:56;101031.84;;;16.22;100.00
52949;BME280;38812;50.942;3.644;2023-07-31T04:36:21;101034.72;;;16.16;100.00
52949;BME280;38812;50.942;3.644;2023-07-31T04:38:47;101045.03;;;16.23;100.00
52949;BME280;38812;50.942;3.644;2023-07-31T04:41:12;101038.88;;;16.23;100.00
52949;BME280;38812;50.942;3.644;2023-07-31T04:43:38;101002.03;;;15.95;100.00
52949;BME280;38812;50.942;3.644;2023-07-31T04:46:05;101046.19;;;16.16;100.00
52949;BME280;38812;50.942;3.644;2023-07-31T04:48:30;101039.97;;;16.17;100.00
52949;BME280;38812;50.942;3.644;2023-07-31T04:50:56;101014.81;;;16.05;100.00
52949;BME280;38812;50.942;3.644;2023-07-31T04:53:21;101034.06;;;16.10;100.00
52949;BME280;38812;50.942;3.644;2023-07-31T04:55:46;101033.19;;;16.10;100.00
52949;BME280;38812;50.942;3.644;2023-07-31T04:58:12;101029.63;;;16.11;100.00
52949;BME280;38812;50.942;3.644;2023-07-31T05:00:37;101027.81;;;16.11;100.00
52949;BME280;38812;50.942;3.644;2023-07-31T05:03:02;101005.09;;;16.06;100.00
52949;BME280;38812;50.942;3.644;2023-07-31T05:05:28;101000.91;;;16.00;100.00
52949;BME280;38812;50.942;3.644;2023-07-31T05:07:53;100983.53;;;15.93;100.00
52949;BME280;38812;50.942;3.644;2023-07-31T05:10:19;101009.50;;;16.05;100.00
52949;BME280;38812;50.942;3.644;2023-07-31T05:12:44;101005.69;;;16.13;100.00
52949;BME280;38812;50.942;3.644;2023-07-31T05:15:09;100988.44;;;16.02;100.00
52949;BME280;38812;50.942;3.644;2023-07-31T05:17:35;100971.09;;;15.95;100.00
52949;BME280;38812;50.942;3.644;2023-07-31T05:20:00;100994.97;;;16.16;100.00
52949;BME280;38812;50.942;3.644;2023-07-31T05:22:26;100972.41;;;16.05;100.00
52949;BME280;38812;50.942;3.644;2023-07-31T05:24:51;100951.69;;;15.95;100.00
52949;BME280;38812;50.942;3.644;2023-07-31T05:27:16;100980.81;;;16.17;100.00
52949;BME280;38812;50.942;3.644;2023-07-31T05:29:44;100980.59;;;16.21;100.00
52949;BME280;38812;50.942;3.644;2023-07-31T05:32:09;100985.00;;;16.22;100.00
52949;BME280;38812;50.942;3.644;2023-07-31T05:34:35;100958.00;;;16.13;100.00
52949;BME280;38812;50.942;3.644;2023-07-31T05:37:00;100971.66;;;16.24;100.00
52949;BME280;38812;50.942;3.644;2023-07-31T05:39:25;100970.66;;;16.26;100.00
52949;BME280;38812;50.942;3.644;2023-07-31T05:41:51;100931.88;;;16.03;100.00
52949;BME280;38812;50.942;3.644;2023-07-31T05:44:16;100962.91;;;16.22;100.00
52949;BME280;38812;50.942;3.644;2023-07-31T05:46:41;100957.34;;;16.28;100.00
52949;BME280;38812;50.942;3.644;2023-07-31T05:49:07;100950.47;;;16.24;100.00
52949;BME280;38812;50.942;3.644;2023-07-31T05:51:32;100920.22;;;16.07;100.00
52949;BME280;38812;50.942;3.644;2023-07-31T05:53:58;100956.22;;;16.33;100.00
52949;BME280;38812;50.942;3.644;2023-07-31T05:56:23;100944.63;;;16.36;100.00
52949;BME280;38812;50.942;3.644;2023-07-31T05:58:48;100911.53;;;16.24;100.00
52949;BME280;38812;50.942;3.644;2023-07-31T06:01:16;100891.81;;;16.11;100.00
52949;BME280;38812;50.942;3.644;2023-07-31T06:03:42;100927.13;;;16.32;100.00
52949;BME280;38812;50.942;3.644;2023-07-31T06:06:07;100942.63;;;16.41;100.00
52949;BME280;38812;50.942;3.644;2023-07-31T06:08:33;100913.66;;;16.36;100.00
52949;BME280;38812;50.942;3.644;2023-07-31T06:10:58;100923.66;;;16.50;100.00
52949;BME280;38812;50.942;3.644;2023-07-31T06:13:24;100924.59;;;16.49;100.00
52949;BME280;38812;50.942;3.644;2023-07-31T06:15:49;100909.28;;;16.56;100.00
52949;BME280;38812;50.942;3.644;2023-07-31T06:18:14;100889.47;;;16.44;100.00
52949;BME280;38812;50.942;3.644;2023-07-31T06:20:40;100908.13;;;16.61;100.00
52949;BME280;38812;50.942;3.644;2023-07-31T06:23:06;100899.91;;;16.67;100.00
52949;BME280;38812;50.942;3.644;2023-07-31T06:25:31;100886.53;;;16.70;100.00
52949;BME280;38812;50.942;3.644;2023-07-31T06:27:57;100859.38;;;16.65;100.00
52949;BME280;38812;50.942;3.644;2023-07-31T06:30:22;100873.50;;;16.85;100.00
52949;BME280;38812;50.942;3.644;2023-07-31T06:32:47;100843.81;;;16.76;100.00
52949;BME280;38812;50.942;3.644;2023-07-31T06:35:13;100869.59;;;16.92;100.00
52949;BME280;38812;50.942;3.644;2023-07-31T06:37:38;100841.94;;;16.78;100.00
52949;BME280;38812;50.942;3.644;2023-07-31T06:40:09;100846.19;;;16.83;100.00
52949;BME280;38812;50.942;3.644;2023-07-31T06:42:35;100867.88;;;16.91;100.00
52949;BME280;38812;50.942;3.644;2023-07-31T06:45:01;100853.41;;;16.98;100.00
52949;BME280;38812;50.942;3.644;2023-07-31T06:47:27;100852.81;;;16.91;100.00
52949;BME280;38812;50.942;3.644;2023-07-31T06:49:52;100837.41;;;16.81;100.00
52949;BME280;38812;50.942;3.644;2023-07-31T06:52:19;100865.75;;;16.99;100.00
52949;BME280;38812;50.942;3.644;2023-07-31T06:55:00;100868.47;;;16.97;100.00
52949;BME280;38812;50.942;3.644;2023-07-31T06:57:25;100873.97;;;16.93;100.00
52949;BME280;38812;50.942;3.644;2023-07-31T06:59:51;100881.16;;;16.91;100.00
52949;BME280;38812;50.942;3.644;2023-07-31T07:02:16;100873.50;;;16.85;100.00
52949;BME280;38812;50.942;3.644;2023-07-31T07:04:42;100859.22;;;16.87;100.00
52949;BME280;38812;50.942;3.644;2023-07-31T07:07:07;100871.84;;;17.01;100.00
52949;BME280;38812;50.942;3.644;2023-07-31T07:09:32;100860.16;;;17.05;100.00
52949;BME280;38812;50.942;3.644;2023-07-31T07:11:58;100866.00;;;17.30;100.00
52949;BME280;38812;50.942;3.644;2023-07-31T07:14:23;100868.19;;;17.39;100.00
52949;BME280;38812;50.942;3.644;2023-07-31T07:16:51;100864.97;;;17.52;100.00
52949;BME280;38812;50.942;3.644;2023-07-31T07:19:16;100834.38;;;17.43;100.00
52949;BME280;38812;50.942;3.644;2023-07-31T07:21:42;100841.28;;;17.47;100.00
52949;BME280;38812;50.942;3.644;2023-07-31T07:24:07;100856.75;;;17.56;100.00
52949;BME280;38812;50.942;3.644;2023-07-31T07:26:33;100838.13;;;17.39;100.00
52949;BME280;38812;50.942;3.644;2023-07-31T07:28:58;100842.13;;;17.30;100.00
52949;BME280;38812;50.942;3.644;2023-07-31T07:31:26;100862.66;;;17.44;100.00
52949;BME280;38812;50.942;3.644;2023-07-31T07:33:51;100865.53;;;17.39;100.00
52949;BME280;38812;50.942;3.644;2023-07-31T07:36:17;100864.13;;;17.32;100.00
52949;BME280;38812;50.942;3.644;2023-07-31T07:38:42;100860.69;;;17.30;100.00
52949;BME280;38812;50.942;3.644;2023-07-31T07:41:07;100863.78;;;17.21;100.00
52949;BME280;38812;50.942;3.644;2023-07-31T07:43:33;100858.03;;;17.30;100.00
52949;BME280;38812;50.942;3.644;2023-07-31T07:45:58;100861.09;;;17.40;100.00
52949;BME280;38812;50.942;3.644;2023-07-31T07:48:24;100847.75;;;17.41;100.00
52949;BME280;38812;50.942;3.644;2023-07-31T07:50:50;100847.75;;;17.59;100.00
52949;BME280;38812;50.942;3.644;2023-07-31T07:53:15;100834.81;;;17.53;100.00
52949;BME280;38812;50.942;3.644;2023-07-31T07:55:41;100850.06;;;17.66;100.00
52949;BME280;38812;50.942;3.644;2023-07-31T07:58:07;100824.00;;;17.56;100.00
52949;BME280;38812;50.942;3.644;2023-07-31T08:00:33;100826.25;;;17.65;100.00
52949;BME280;38812;50.942;3.644;2023-07-31T08:02:58;100816.25;;;17.70;100.00
52949;BME280;38812;50.942;3.644;2023-07-31T08:05:23;100835.41;;;17.94;100.00
52949;BME280;38812;50.942;3.644;2023-07-31T08:07:49;100825.13;;;18.03;100.00
52949;BME280;38812;50.942;3.644;2023-07-31T08:10:14;100835.59;;;18.06;100.00
52949;BME280;38812;50.942;3.644;2023-07-31T08:12:40;100841.41;;;18.14;100.00
52949;BME280;38812;50.942;3.644;2023-07-31T08:15:06;100810.91;;;18.04;100.00
52949;BME280;38812;50.942;3.644;2023-07-31T08:17:31;100827.44;;;18.27;100.00
52949;BME280;38812;50.942;3.644;2023-07-31T08:19:56;100814.75;;;18.32;100.00
52949;BME280;38812;50.942;3.644;2023-07-31T08:22:23;100826.97;;;18.36;100.00
52949;BME280;38812;50.942;3.644;2023-07-31T08:24:49;100822.28;;;18.24;100.00
52949;BME280;38812;50.942;3.644;2023-07-31T08:27:14;100810.75;;;18.07;100.00
52949;BME280;38812;50.942;3.644;2023-07-31T08:29:39;100815.25;;;18.23;100.00
52949;BME280;38812;50.942;3.644;2023-07-31T08:32:05;100819.91;;;18.35;100.00
52949;BME280;38812;50.942;3.644;2023-07-31T08:34:31;100801.38;;;18.33;100.00
52949;BME280;38812;50.942;3.644;2023-07-31T08:36:56;100805.94;;;18.47;100.00
52949;BME280;38812;50.942;3.644;2023-07-31T08:39:21;100808.84;;;18.60;100.00
52949;BME280;38812;50.942;3.644;2023-07-31T08:41:47;100811.06;;;18.67;100.00
52949;BME280;38812;50.942;3.644;2023-07-31T08:44:14;100801.56;;;18.79;100.00
52949;BME280;38812;50.942;3.644;2023-07-31T08:46:40;100786.69;;;18.91;100.00
52949;BME280;38812;50.942;3.644;2023-07-31T08:49:07;100805.22;;;19.08;100.00
52949;BME280;38812;50.942;3.644;2023-07-31T08:51:36;100791.00;;;18.93;100.00
52949;BME280;38812;50.942;3.644;2023-07-31T08:54:02;100767.22;;;18.74;100.00
52949;BME280;38812;50.942;3.644;2023-07-31T08:56:30;100779.47;;;18.93;100.00
52949;BME280;38812;50.942;3.644;2023-07-31T08:58:57;100794.84;;;19.19;100.00
52949;BME280;38812;50.942;3.644;2023-07-31T09:01:23;100783.25;;;18.89;100.00
52949;BME280;38812;50.942;3.644;2023-07-31T09:03:50;100792.88;;;18.91;100.00
52949;BME280;38812;50.942;3.644;2023-07-31T09:06:18;100798.91;;;18.79;100.00
52949;BME280;38812;50.942;3.644;2023-07-31T09:08:45;100769.25;;;18.69;100.00
52949;BME280;38812;50.942;3.644;2023-07-31T09:11:12;100793.03;;;18.88;100.00
52949;BME280;38812;50.942;3.644;2023-07-31T09:13:39;100784.91;;;18.75;100.00
52949;BME280;38812;50.942;3.644;2023-07-31T09:16:05;100795.19;;;18.66;100.00
52949;BME280;38812;50.942;3.644;2023-07-31T09:18:30;100792.59;;;18.64;100.00
52949;BME280;38812;50.942;3.644;2023-07-31T09:21:05;100789.28;;;18.61;100.00
52949;BME280;38812;50.942;3.644;2023-07-31T09:23:44;100780.44;;;18.43;100.00
52949;BME280;38812;50.942;3.644;2023-07-31T09:26:10;100805.88;;;18.48;100.00
52949;BME280;38812;50.942;3.644;2023-07-31T09:28:36;100790.66;;;18.35;100.00
52949;BME280;38812;50.942;3.644;2023-07-31T09:31:02;100790.94;;;18.46;100.00
52949;BME280;38812;50.942;3.644;2023-07-31T09:33:27;100767.34;;;18.40;100.00
52949;BME280;38812;50.942;3.644;2023-07-31T09:35:52;100794.38;;;18.48;100.00
52949;BME280;38812;50.942;3.644;2023-07-31T09:38:18;100793.66;;;18.44;100.00
52949;BME280;38812;50.942;3.644;2023-07-31T09:40:47;100800.00;;;18.42;100.00
52949;BME280;38812;50.942;3.644;2023-07-31T09:43:20;100765.06;;;18.17;100.00
52949;BME280;38812;50.942;3.644;2023-07-31T09:45:46;100766.94;;;18.14;100.00
52949;BME280;38812;50.942;3.644;2023-07-31T09:48:14;100781.44;;;18.25;100.00
52949;BME280;38812;50.942;3.644;2023-07-31T09:50:43;100760.19;;;18.25;100.00
52949;BME280;38812;50.942;3.644;2023-07-31T09:53:09;100780.13;;;18.49;100.00
52949;BME280;38812;50.942;3.644;2023-07-31T09:55:36;100791.63;;;18.49;100.00
52949;BME280;38812;50.942;3.644;2023-07-31T09:58:09;100777.63;;;18.46;100.00
52949;BME280;38812;50.942;3.644;2023-07-31T10:00:35;100790.28;;;18.58;100.00
52949;BME280;38812;50.942;3.644;2023-07-31T10:03:04;100739.78;;;18.41;100.00
52949;BME280;38812;50.942;3.644;2023-07-31T10:05:43;100783.97;;;18.61;100.00
52949;BME280;38812;50.942;3.644;2023-07-31T10:08:13;100798.34;;;18.57;100.00
52949;BME280;38812;50.942;3.644;2023-07-31T10:10:43;100760.72;;;18.47;100.00
52949;BME280;38812;50.942;3.644;2023-07-31T10:13:09;100782.25;;;18.60;100.00
52949;BME280;38812;50.942;3.644;2023-07-31T10:15:36;100778.97;;;18.70;100.00
52949;BME280;38812;50.942;3.644;2023-07-31T10:18:02;100777.09;;;18.72;100.00
52949;BME280;38812;50.942;3.644;2023-07-31T10:20:28;100756.28;;;18.63;100.00
52949;BME280;38812;50.942;3.644;2023-07-31T10:22:57;100766.72;;;18.83;100.00
52949;BME280;38812;50.942;3.644;2023-07-31T10:25:23;100777.09;;;19.04;100.00
52949;BME280;38812;50.942;3.644;2023-07-31T10:27:50;100756.25;;;19.10;100.00
52949;BME280;38812;50.942;3.644;2023-07-31T10:30:18;100743.53;;;19.15;100.00
52949;BME280;38812;50.942;3.644;2023-07-31T10:32:45;100769.38;;;19.29;100.00
52949;BME280;38812;50.942;3.644;2023-07-31T10:35:11;100760.50;;;19.44;100.00
52949;BME280;38812;50.942;3.644;2023-07-31T10:37:42;100755.63;;;19.67;100.00
52949;BME280;38812;50.942;3.644;2023-07-31T10:40:13;100745.53;;;19.72;100.00
52949;BME280;38812;50.942;3.644;2023-07-31T10:45:13;100752.06;;;20.10;100.00
52949;BME280;38812;50.942;3.644;2023-07-31T10:47:45;100700.03;;;19.61;100.00
52949;BME280;38812;50.942;3.644;2023-07-31T10:52:37;100748.28;;;19.56;100.00
52949;BME280;38812;50.942;3.644;2023-07-31T10:58:08;100738.59;;;19.39;100.00
52949;BME280;38812;50.942;3.644;2023-07-31T11:00:37;100750.94;;;19.56;100.00
52949;BME280;38812;50.942;3.644;2023-07-31T11:03:19;100731.66;;;19.67;100.00
52949;BME280;38812;50.942;3.644;2023-07-31T11:06:00;100727.00;;;19.84;100.00
52949;BME280;38812;50.942;3.644;2023-07-31T11:08:29;100715.47;;;19.70;100.00
52949;BME280;38812;50.942;3.644;2023-07-31T11:13:34;100692.81;;;19.63;100.00
52949;BME280;38812;50.942;3.644;2023-07-31T11:16:04;100689.69;;;19.84;100.00
52949;BME280;38812;50.942;3.644;2023-07-31T11:18:29;100701.09;;;19.87;100.00
52949;BME280;38812;50.942;3.644;2023-07-31T11:20:55;100657.03;;;19.67;100.00
52949;BME280;38812;50.942;3.644;2023-07-31T11:23:21;100696.03;;;19.96;100.00
52949;BME280;38812;50.942;3.644;2023-07-31T11:25:47;100708.81;;;19.77;100.00
52949;BME280;38812;50.942;3.644;2023-07-31T11:28:15;100700.53;;;19.67;100.00
52949;BME280;38812;50.942;3.644;2023-07-31T11:30:41;100687.66;;;19.74;100.00
52949;BME280;38812;50.942;3.644;2023-07-31T11:33:09;100692.94;;;19.90;100.00
52949;BME280;38812;50.942;3.644;2023-07-31T11:35:40;100695.69;;;19.88;100.00
52949;BME280;38812;50.942;3.644;2023-07-31T11:38:07;100652.84;;;19.63;100.00
52949;BME280;38812;50.942;3.644;2023-07-31T11:40:41;100683.13;;;19.90;100.00
52949;BME280;38812;50.942;3.644;2023-07-31T11:43:07;100675.47;;;19.98;100.00
52949;BME280;38812;50.942;3.644;2023-07-31T11:45:33;100655.59;;;19.90;100.00
52949;BME280;38812;50.942;3.644;2023-07-31T11:48:00;100639.31;;;19.80;100.00
52949;BME280;38812;50.942;3.644;2023-07-31T11:50:26;100648.84;;;19.84;100.00
52949;BME280;38812;50.942;3.644;2023-07-31T11:53:00;100642.94;;;19.79;100.00
52949;BME280;38812;50.942;3.644;2023-07-31T11:55:26;100628.25;;;19.72;100.00
52949;BME280;38812;50.942;3.644;2023-07-31T11:57:52;100627.13;;;19.76;100.00
52949;BME280;38812;50.942;3.644;2023-07-31T12:00:19;100622.47;;;19.65;100.00
52949;BME280;38812;50.942;3.644;2023-07-31T12:02:45;100631.69;;;19.60;100.00
52949;BME280;38812;50.942;3.644;2023-07-31T12:05:14;100609.47;;;19.31;100.00
52949;BME280;38812;50.942;3.644;2023-07-31T12:07:51;100634.50;;;19.42;100.00
52949;BME280;38812;50.942;3.644;2023-07-31T12:10:27;100642.25;;;19.47;100.00
52949;BME280;38812;50.942;3.644;2023-07-31T12:15:33;100635.13;;;19.62;100.00
52949;BME280;38812;50.942;3.644;2023-07-31T12:17:59;100634.38;;;19.60;100.00
52949;BME280;38812;50.942;3.644;2023-07-31T12:20:25;100665.22;;;19.64;100.00
52949;BME280;38812;50.942;3.644;2023-07-31T12:22:51;100667.03;;;19.33;100.00
52949;BME280;38812;50.942;3.644;2023-07-31T12:25:16;100680.66;;;19.13;100.00
52949;BME280;38812;50.942;3.644;2023-07-31T12:27:44;100641.22;;;18.90;100.00
52949;BME280;38812;50.942;3.644;2023-07-31T12:32:54;100673.97;;;18.76;100.00
52949;BME280;38812;50.942;3.644;2023-07-31T12:35:19;100704.13;;;18.76;100.00
52949;BME280;38812;50.942;3.644;2023-07-31T12:37:44;100717.69;;;18.72;100.00
52949;BME280;38812;50.942;3.644;2023-07-31T12:40:10;100722.84;;;18.59;100.00
52949;BME280;38812;50.942;3.644;2023-07-31T12:42:36;100704.53;;;18.37;100.00
52949;BME280;38812;50.942;3.644;2023-07-31T12:45:01;100697.22;;;18.09;100.00
52949;BME280;38812;50.942;3.644;2023-07-31T12:47:27;100732.66;;;18.26;100.00
52949;BME280;38812;50.942;3.644;2023-07-31T12:49:52;100720.28;;;18.09;100.00
52949;BME280;38812;50.942;3.644;2023-07-31T12:52:18;100741.31;;;18.13;100.00
52949;BME280;38812;50.942;3.644;2023-07-31T12:54:43;100714.50;;;18.01;100.00